Time;durP1;ratioP1;P1;durP2;ratioP2;P2;SDS_P1;SDS_P2;PMS_P1;PMS_P2;Temp;Humidity;BMP_temperature;BMP_pressure;BME280_temperature;BME280_humidity;BME280_pressure;Samples;Min_cycle;Max_cycle;Signal;HPM_P1;HPM_P2
2021/12/11 00:02:10;;;;;;;3.47;1.80;;;;;;;2.94;91.01;97409.16;5073354;28;20241;-56
2021/12/11 00:04:40;;;;;;;3.30;1.73;;;;;;;2.95;91.37;97400.47;5073805;28;20174;-56
2021/12/11 00:07:10;;;;;;;4.07;1.77;;;;;;;2.91;91.81;97423.13;5073981;28;20194;-56
2021/12/11 00:09:43;;;;;;;2.47;1.50;;;;;;;2.87;92.15;97433.84;5068809;28;20262;-55
2021/12/11 00:12:13;;;;;;;5.53;1.90;;;;;;;2.87;90.34;97421.75;5063394;28;20203;-57
2021/12/11 00:14:43;;;;;;;3.13;1.57;;;;;;;2.85;92.36;97423.63;5066118;28;20202;-57
2021/12/11 00:17:11;;;;;;;3.33;1.70;;;;;;;2.85;93.32;97428.78;5066715;28;20203;-53
2021/12/11 00:19:41;;;;;;;4.40;1.90;;;;;;;2.85;91.79;97435.72;5066441;28;20199;-57
2021/12/11 00:22:11;;;;;;;6.27;1.60;;;;;;;2.88;92.15;97433.69;5063173;28;20226;-56
2021/12/11 00:24:40;;;;;;;4.63;1.87;;;;;;;2.88;91.14;97440.63;5062065;28;20191;-57
2021/12/11 00:27:10;;;;;;;4.27;1.90;;;;;;;2.89;92.15;97453.38;5062171;28;20190;-57
2021/12/11 00:29:38;;;;;;;5.50;1.60;;;;;;;2.85;92.64;97436.53;5062057;28;20290;-57
2021/12/11 00:32:08;;;;;;;6.13;1.80;;;;;;;2.87;92.89;97446.72;5062455;28;20219;-56
2021/12/11 00:34:36;;;;;;;5.93;1.80;;;;;;;2.87;92.85;97450.09;5061225;28;20195;-57
2021/12/11 00:37:07;;;;;;;2.93;1.47;;;;;;;2.84;92.61;97472.75;5071582;28;20191;-56
2021/12/11 00:39:43;;;;;;;2.80;1.80;;;;;;;2.82;93.26;97462.56;5065334;28;20179;-57
2021/12/11 00:42:12;;;;;;;4.47;2.23;;;;;;;2.76;92.71;97481.94;5064387;28;20218;-57
2021/12/11 00:44:43;;;;;;;4.43;2.00;;;;;;;2.80;94.01;97480.75;5066428;28;20187;-56
2021/12/11 00:47:14;;;;;;;4.27;1.70;;;;;;;2.82;92.69;97490.09;5062330;28;20197;-55
2021/12/11 00:49:48;;;;;;;5.07;1.47;;;;;;;2.80;93.11;97497.97;5062636;28;20648;-55
2021/12/11 00:52:15;;;;;;;3.03;1.60;;;;;;;2.82;93.43;97500.41;5062689;28;20191;-56
2021/12/11 00:54:44;;;;;;;3.70;1.40;;;;;;;2.82;92.34;97501.22;5065308;28;20183;-57
2021/12/11 00:57:15;;;;;;;3.10;1.60;;;;;;;2.75;94.01;97498.34;5063504;28;20195;-56
2021/12/11 00:59:42;;;;;;;2.90;1.80;;;;;;;2.75;94.69;97511.25;5062722;28;20187;-57
2021/12/11 01:02:09;;;;;;;2.97;1.73;;;;;;;2.80;94.28;97511.66;5060797;28;20295;-58
2021/12/11 01:04:41;;;;;;;2.13;1.57;;;;;;;2.83;93.95;97515.75;5062101;28;20708;-56
2021/12/11 01:07:17;;;;;;;4.67;2.10;;;;;;;2.83;93.67;97527.81;5062801;28;20534;-56
2021/12/11 01:09:49;;;;;;;2.37;1.60;;;;;;;2.81;93.75;97525.34;5061377;28;20614;-56
2021/12/11 01:12:24;;;;;;;4.27;2.17;;;;;;;2.73;94.13;97541.47;5059707;28;20200;-56
2021/12/11 01:14:55;;;;;;;4.03;2.27;;;;;;;2.71;94.58;97547.69;5066785;28;20187;-57
2021/12/11 01:17:31;;;;;;;4.43;2.23;;;;;;;2.72;94.87;97549.31;5051550;28;20669;-55
2021/12/11 01:20:01;;;;;;;4.57;2.10;;;;;;;2.72;93.98;97564.78;5052311;28;20186;-56
2021/12/11 01:22:37;;;;;;;3.13;2.03;;;;;;;2.69;94.27;97563.28;5053172;28;20581;-56
2021/12/11 01:25:12;;;;;;;4.13;2.03;;;;;;;2.66;94.76;97556.63;5062768;28;20194;-56
2021/12/11 01:27:43;;;;;;;3.73;2.00;;;;;;;2.69;94.64;97588.22;5065150;28;20578;-57
2021/12/11 01:30:18;;;;;;;4.30;2.30;;;;;;;2.70;95.19;97601.00;5061872;28;20206;-56
2021/12/11 01:32:45;;;;;;;5.67;2.10;;;;;;;2.70;95.30;97592.44;5060562;28;20178;-57
2021/12/11 01:35:16;;;;;;;3.47;1.90;;;;;;;2.65;94.32;97597.97;5057838;28;20191;-56
2021/12/11 01:37:44;;;;;;;3.60;1.93;;;;;;;2.71;93.73;97599.22;5059037;28;20211;-55
2021/12/11 01:40:16;;;;;;;3.63;1.80;;;;;;;2.72;94.90;97604.25;5059799;28;20196;-56
2021/12/11 01:42:45;;;;;;;2.67;1.87;;;;;;;2.68;94.52;97607.22;5061444;28;20202;-56
2021/12/11 01:45:15;;;;;;;3.03;2.00;;;;;;;2.66;95.36;97603.00;5062097;28;20193;-56
2021/12/11 01:47:44;;;;;;;3.63;1.70;;;;;;;2.72;94.45;97608.59;5061665;28;20188;-57
2021/12/11 01:50:15;;;;;;;5.57;1.80;;;;;;;2.74;95.47;97617.84;5060023;28;20285;-54
2021/12/11 01:52:49;;;;;;;4.27;1.90;;;;;;;2.72;94.57;97624.06;5067382;28;20190;-55
2021/12/11 01:55:22;;;;;;;5.47;1.63;;;;;;;2.74;94.52;97617.00;5063581;28;20191;-57
2021/12/11 01:57:52;;;;;;;4.97;1.60;;;;;;;2.72;95.81;97636.94;5060755;28;20195;-56
2021/12/11 02:00:24;;;;;;;2.97;1.40;;;;;;;2.67;96.21;97634.75;5058989;28;20214;-57
2021/12/11 02:02:55;;;;;;;6.00;1.80;;;;;;;2.69;97.03;97650.91;5060215;28;20206;-56
2021/12/11 02:05:24;;;;;;;3.53;1.60;;;;;;;2.68;96.13;97638.97;5065835;28;20194;-56
2021/12/11 02:07:57;;;;;;;1.90;1.20;;;;;;;2.68;96.03;97654.41;5062465;28;20190;-56
2021/12/11 02:10:28;;;;;;;4.13;1.53;;;;;;;2.64;96.35;97647.88;5063578;28;20233;-56
2021/12/11 02:12:59;;;;;;;1.80;1.40;;;;;;;2.66;95.09;97662.25;5067176;28;20191;-57
2021/12/11 02:15:33;;;;;;;2.93;2.10;;;;;;;2.65;97.36;97672.69;5060417;28;20270;-58
2021/12/11 02:18:09;;;;;;;3.37;1.90;;;;;;;2.58;96.38;97689.59;5064317;28;20584;-57
2021/12/11 02:20:41;;;;;;;3.13;1.43;;;;;;;2.47;96.28;97701.56;5062909;28;20217;-58
2021/12/11 02:23:09;;;;;;;3.40;1.23;;;;;;;2.21;95.42;97711.38;5053853;28;20261;-57
2021/12/11 02:25:41;;;;;;;1.37;0.70;;;;;;;1.84;95.11;97716.78;5060927;28;20194;-57
2021/12/11 02:28:16;;;;;;;1.47;0.80;;;;;;;1.69;96.75;97713.66;5060127;28;20652;-58
2021/12/11 02:30:47;;;;;;;2.00;0.90;;;;;;;1.56;97.99;97717.16;5065875;28;20324;-58
2021/12/11 02:33:19;;;;;;;1.47;0.93;;;;;;;1.57;97.58;97716.22;5062934;28;20266;-58
2021/12/11 02:35:50;;;;;;;1.90;1.00;;;;;;;1.53;97.44;97722.53;5059672;28;20191;-58
2021/12/11 02:38:23;;;;;;;4.53;1.53;;;;;;;1.52;98.78;97731.19;5061988;28;20242;-58
2021/12/11 02:40:54;;;;;;;3.17;1.33;;;;;;;1.50;99.87;97745.09;5062966;28;20293;-58
2021/12/11 02:43:26;;;;;;;5.10;2.07;;;;;;;1.46;100.00;97753.06;5061480;28;20206;-58
2021/12/11 02:45:59;;;;;;;6.20;2.27;;;;;;;1.43;100.00;97748.13;5059736;28;20274;-58
2021/12/11 02:48:29;;;;;;;5.00;2.57;;;;;;;1.49;100.00;97770.00;5059641;28;20192;-57
2021/12/11 02:51:05;;;;;;;5.27;2.13;;;;;;;1.52;100.00;97764.63;5059422;28;20783;-58
2021/12/11 02:53:38;;;;;;;5.63;2.50;;;;;;;1.53;100.00;97773.16;5060105;28;20193;-58
2021/12/11 02:56:10;;;;;;;4.53;2.30;;;;;;;1.52;100.00;97780.06;5059411;28;20195;-58
2021/12/11 02:58:41;;;;;;;6.03;2.97;;;;;;;1.58;100.00;97784.75;5061327;28;20270;-58
2021/12/11 03:01:19;;;;;;;4.90;2.70;;;;;;;1.57;100.00;97785.66;5064082;28;20755;-57
2021/12/11 03:03:51;;;;;;;4.70;2.90;;;;;;;1.60;100.00;97792.31;5062980;28;20683;-57
2021/12/11 03:06:22;;;;;;;5.37;3.03;;;;;;;1.62;100.00;97805.88;5070170;28;20311;-59
2021/12/11 03:08:53;;;;;;;4.63;2.87;;;;;;;1.68;100.00;97809.78;5070732;28;20189;-58
2021/12/11 03:11:24;;;;;;;7.43;4.20;;;;;;;1.65;100.00;97815.16;5068964;28;20642;-58
2021/12/11 03:13:54;;;;;;;8.97;4.10;;;;;;;1.65;100.00;97823.66;5069980;28;20183;-58
2021/12/11 03:16:24;;;;;;;6.30;4.03;;;;;;;1.70;100.00;97825.91;5070788;28;20213;-58
2021/12/11 03:18:53;;;;;;;6.67;4.07;;;;;;;1.68;100.00;97828.59;5070471;28;20612;-59
2021/12/11 03:21:20;;;;;;;8.37;4.43;;;;;;;1.67;100.00;97834.66;5069105;28;20210;-58
2021/12/11 03:23:50;;;;;;;8.90;5.47;;;;;;;1.70;100.00;97842.16;5063151;28;20263;-58
2021/12/11 03:26:17;;;;;;;7.83;4.87;;;;;;;1.71;100.00;97843.00;5066475;28;20210;-58
2021/12/11 03:28:44;;;;;;;8.60;4.77;;;;;;;1.68;100.00;97854.31;5069657;28;20187;-59
2021/12/11 03:31:12;;;;;;;6.77;4.43;;;;;;;1.68;99.31;97856.88;5068088;28;20218;-59
2021/12/11 03:33:41;;;;;;;9.53;5.27;;;;;;;1.65;99.89;97858.88;5072812;28;20254;-58
2021/12/11 03:36:10;;;;;;;10.10;5.37;;;;;;;1.65;100.00;97867.41;5073846;28;20214;-58
2021/12/11 03:38:42;;;;;;;9.67;5.27;;;;;;;1.67;100.00;97870.69;5073993;28;20668;-58
2021/12/11 03:41:11;;;;;;;8.07;4.80;;;;;;;1.71;99.78;97876.44;5073252;28;20304;-59
2021/12/11 03:43:38;;;;;;;9.20;5.43;;;;;;;1.68;99.03;97880.03;5073671;28;20255;-58
2021/12/11 03:46:09;;;;;;;9.30;5.00;;;;;;;1.65;99.59;97885.41;5074151;28;20218;-58
2021/12/11 03:48:38;;;;;;;11.07;5.53;;;;;;;1.61;99.97;97891.72;5071412;28;20206;-58
2021/12/11 03:51:08;;;;;;;9.73;6.07;;;;;;;1.64;99.70;97899.22;5070899;28;20738;-58
2021/12/11 03:53:35;;;;;;;12.27;6.53;;;;;;;1.65;100.00;97900.03;5071819;28;20191;-56
2021/12/11 03:56:06;;;;;;;9.73;6.17;;;;;;;1.66;100.00;97899.91;5070200;28;20191;-59
2021/12/11 03:58:35;;;;;;;10.57;6.27;;;;;;;1.67;100.00;97911.84;5071611;28;20205;-58
2021/12/11 04:01:08;;;;;;;10.57;6.10;;;;;;;1.62;100.00;97907.06;5072475;28;20202;-58
2021/12/11 04:03:38;;;;;;;13.03;6.87;;;;;;;1.64;100.00;97914.66;5070795;28;20209;-58
2021/12/11 04:06:08;;;;;;;11.63;7.13;;;;;;;1.65;99.88;97920.63;5072468;28;20187;-58
2021/12/11 04:08:40;;;;;;;9.20;6.33;;;;;;;1.59;99.74;97929.63;5072350;28;20187;-58
2021/12/11 04:11:09;;;;;;;11.03;6.30;;;;;;;1.60;100.00;97926.09;5061474;28;20293;-58
2021/12/11 04:13:38;;;;;;;10.93;5.80;;;;;;;1.60;100.00;97934.66;5064540;28;20217;-57
2021/12/11 04:16:07;;;;;;;9.83;5.77;;;;;;;1.59;99.86;97938.16;5072288;28;20218;-58
2021/12/11 04:18:34;;;;;;;11.13;6.63;;;;;;;1.60;100.00;97944.09;5071904;28;20208;-59
2021/12/11 04:21:01;;;;;;;9.83;6.50;;;;;;;1.60;100.00;97947.50;5071050;28;20206;-58
2021/12/11 04:23:28;;;;;;;8.87;5.97;;;;;;;1.61;100.00;97949.16;5062224;28;20598;-59
2021/12/11 04:25:57;;;;;;;9.87;6.07;;;;;;;1.61;100.00;97964.59;5061401;28;20612;-58
2021/12/11 04:28:29;;;;;;;9.00;5.83;;;;;;;1.59;99.95;97965.63;5071620;28;20264;-59
2021/12/11 04:31:04;;;;;;;8.27;5.70;;;;;;;1.60;99.88;97973.22;5071802;28;20275;-60
2021/12/11 04:33:33;;;;;;;8.60;5.73;;;;;;;1.68;99.23;97971.88;5072055;28;20674;-58
2021/12/11 04:36:01;;;;;;;9.73;6.53;;;;;;;1.67;100.00;97977.94;5071352;28;20663;-60
2021/12/11 04:38:28;;;;;;;9.53;6.00;;;;;;;1.65;100.00;97987.53;5072151;28;20225;-58
2021/12/11 04:40:57;;;;;;;9.63;6.00;;;;;;;1.61;100.00;97982.59;5069378;28;20637;-59
2021/12/11 04:43:25;;;;;;;9.13;5.93;;;;;;;1.61;99.93;97990.31;5071111;28;20191;-59
2021/12/11 04:45:55;;;;;;;8.17;5.90;;;;;;;1.60;99.66;98005.84;5072261;28;20242;-58
2021/12/11 04:48:33;;;;;;;10.70;7.10;;;;;;;1.60;100.00;97998.97;5072658;28;20266;-59
2021/12/11 04:51:10;;;;;;;10.20;6.30;;;;;;;1.61;100.00;98004.91;5071356;28;20229;-58
2021/12/11 04:53:49;;;;;;;9.80;5.87;;;;;;;1.63;100.00;98005.63;5071549;28;20191;-58
2021/12/11 04:56:42;;;;;;;10.50;6.27;;;;;;;1.63;100.00;98003.06;5072949;28;20607;-59
2021/12/11 04:59:35;;;;;;;8.43;5.60;;;;;;;1.59;99.31;98010.19;5072664;28;20190;-58
2021/12/11 05:02:17;;;;;;;11.27;6.70;;;;;;;1.63;99.82;98003.06;5072907;28;20208;-58
2021/12/11 05:04:58;;;;;;;7.43;5.97;;;;;;;1.56;100.00;98020.69;5072341;28;20198;-57
2021/12/11 05:07:32;;;;;;;9.50;6.90;;;;;;;1.58;100.00;98031.69;5072738;28;20191;-58
2021/12/11 05:10:13;;;;;;;11.10;7.37;;;;;;;1.60;100.00;98034.13;5072105;28;20296;-59
2021/12/11 05:12:41;;;;;;;9.63;6.80;;;;;;;1.56;100.00;98043.03;5070303;28;20190;-59
2021/12/11 05:15:12;;;;;;;9.43;6.77;;;;;;;1.58;100.00;98056.59;5071105;28;20248;-58
2021/12/11 05:17:39;;;;;;;9.73;6.63;;;;;;;1.59;100.00;98050.53;5072637;28;20565;-58
2021/12/11 05:20:10;;;;;;;9.93;6.60;;;;;;;1.61;100.00;98058.94;5071406;28;20546;-55
2021/12/11 05:22:38;;;;;;;9.37;6.80;;;;;;;1.56;100.00;98067.00;5070987;28;20249;-58
2021/12/11 05:25:09;;;;;;;9.70;7.23;;;;;;;1.57;100.00;98073.78;5071030;28;20822;-58
2021/12/11 05:27:37;;;;;;;10.53;7.27;;;;;;;1.56;100.00;98077.28;5068576;28;20200;-57
2021/12/11 05:30:08;;;;;;;9.27;6.70;;;;;;;1.56;100.00;98082.41;5071182;28;20269;-59
2021/12/11 05:32:35;;;;;;;9.23;6.80;;;;;;;1.56;100.00;98081.63;5072531;28;20193;-58
2021/12/11 05:35:02;;;;;;;10.70;7.53;;;;;;;1.60;100.00;98083.84;5071773;28;20192;-58
2021/12/11 05:37:31;;;;;;;11.23;7.20;;;;;;;1.62;100.00;98092.28;5072423;28;20746;-58
2021/12/11 05:39:58;;;;;;;11.57;7.57;;;;;;;1.63;100.00;98098.25;5071346;28;20268;-58
2021/12/11 05:42:25;;;;;;;10.67;7.40;;;;;;;1.59;100.00;98107.94;5071467;28;20190;-58
2021/12/11 05:44:52;;;;;;;11.37;7.73;;;;;;;1.60;100.00;98101.88;5071902;28;20240;-58
2021/12/11 05:47:20;;;;;;;12.03;7.63;;;;;;;1.59;100.00;98104.56;5072293;28;20271;-58
2021/12/11 05:49:47;;;;;;;11.60;7.73;;;;;;;1.60;100.00;98117.28;5070826;28;20190;-60
2021/12/11 05:52:14;;;;;;;11.33;8.17;;;;;;;1.61;100.00;98113.78;5070807;28;20198;-59
2021/12/11 05:54:46;;;;;;;12.93;8.63;;;;;;;1.65;100.00;98126.44;5068369;28;20264;-58
2021/12/11 05:57:16;;;;;;;13.13;8.70;;;;;;;1.65;100.00;98129.03;5071301;28;20190;-58
2021/12/11 05:59:46;;;;;;;29.10;19.20;;;;;;;1.66;100.00;98138.38;5063157;28;20205;-57
2021/12/11 06:02:17;;;;;;;14.97;10.40;;;;;;;1.69;100.00;98135.59;5071891;28;20596;-59
2021/12/11 06:04:46;;;;;;;13.33;9.60;;;;;;;1.68;100.00;98149.38;5071164;28;20289;-57
2021/12/11 06:07:15;;;;;;;12.37;8.80;;;;;;;1.62;100.00;98156.59;5071455;28;20187;-59
2021/12/11 06:09:47;;;;;;;13.07;9.37;;;;;;;1.69;99.98;98163.91;5070753;28;20185;-58
2021/12/11 06:12:17;;;;;;;15.47;10.50;;;;;;;1.62;99.97;98158.34;5070398;28;20522;-59
2021/12/11 06:14:45;;;;;;;15.47;9.73;;;;;;;1.63;100.00;98170.28;5065792;28;20269;-57
2021/12/11 06:17:15;;;;;;;13.40;9.27;;;;;;;1.64;100.00;98173.69;5071362;28;20233;-58
2021/12/11 06:19:50;;;;;;;18.43;11.83;;;;;;;1.62;100.00;98179.75;5070191;28;20187;-59
2021/12/11 06:22:17;;;;;;;17.87;10.97;;;;;;;1.66;100.00;98182.13;5071469;28;20271;-58
2021/12/11 06:24:45;;;;;;;18.23;10.47;;;;;;;1.65;100.00;98193.34;5071348;28;20217;-58
2021/12/11 06:27:11;;;;;;;13.70;9.63;;;;;;;1.60;100.00;98186.75;5061062;28;20195;-58
2021/12/11 06:29:39;;;;;;;15.50;10.77;;;;;;;1.65;100.00;98198.50;5070956;28;20190;-58
2021/12/11 06:32:07;;;;;;;16.60;10.13;;;;;;;1.60;100.00;98198.78;5070871;28;20331;-58
2021/12/11 06:34:34;;;;;;;15.63;10.43;;;;;;;1.66;100.00;98207.84;5069316;28;20194;-57
2021/12/11 06:37:01;;;;;;;15.23;9.93;;;;;;;1.62;100.00;98213.19;5071202;28;20201;-58
2021/12/11 06:39:29;;;;;;;19.13;13.43;;;;;;;1.66;100.00;98213.00;5071141;28;20186;-58
2021/12/11 06:42:02;;;;;;;18.45;12.30;;;;;;;1.67;100.00;98218.03;5069854;28;20430;-55
2021/12/11 06:44:29;;;;;;;20.20;13.27;;;;;;;1.67;100.00;98219.78;5070941;28;20229;-58
2021/12/11 06:46:58;;;;;;;17.90;11.63;;;;;;;1.68;100.00;98226.56;5071104;28;20183;-58
2021/12/11 06:49:26;;;;;;;20.20;13.10;;;;;;;1.64;100.00;98236.25;5070478;28;20708;-58
2021/12/11 06:51:55;;;;;;;24.63;15.40;;;;;;;1.65;100.00;98237.06;5070155;28;20210;-58
2021/12/11 06:54:25;;;;;;;23.87;15.03;;;;;;;1.67;100.00;98248.09;5070780;28;20236;-58
2021/12/11 06:56:52;;;;;;;20.80;13.57;;;;;;;1.67;100.00;98266.91;5070085;28;20714;-57
2021/12/11 06:59:21;;;;;;;20.77;12.53;;;;;;;1.61;100.00;98263.00;5069103;28;20230;-58
2021/12/11 07:01:48;;;;;;;23.67;15.47;;;;;;;1.73;100.00;98273.41;5070061;28;20282;-58
2021/12/11 07:04:16;;;;;;;24.30;14.70;;;;;;;1.67;100.00;98277.19;5068092;28;20281;-57
2021/12/11 07:06:47;;;;;;;53.17;28.33;;;;;;;1.65;100.00;98281.63;5073471;28;20193;-55
2021/12/11 07:09:16;;;;;;;34.73;21.90;;;;;;;1.66;100.00;98287.59;5077317;28;20271;-58
2021/12/11 07:11:45;;;;;;;19.97;12.10;;;;;;;1.71;100.00;98295.84;5076306;28;20939;-58
2021/12/11 07:14:14;;;;;;;23.37;14.67;;;;;;;1.69;100.00;98305.41;5077448;28;20190;-59
2021/12/11 07:16:43;;;;;;;27.17;17.83;;;;;;;1.63;100.00;98306.63;5077389;28;20273;-58
2021/12/11 07:19:11;;;;;;;24.17;14.27;;;;;;;1.60;100.00;98315.38;5076896;28;20196;-58
2021/12/11 07:21:39;;;;;;;19.50;12.20;;;;;;;1.69;100.00;98326.81;5076256;28;20226;-55
2021/12/11 07:24:08;;;;;;;24.03;15.03;;;;;;;1.74;100.00;98331.66;5077070;28;20190;-56
2021/12/11 07:26:36;;;;;;;17.43;11.27;;;;;;;1.75;100.00;98336.69;5071733;28;20268;-59
2021/12/11 07:29:07;;;;;;;20.87;12.60;;;;;;;1.77;100.00;98341.75;5061815;28;20273;-59
2021/12/11 07:31:35;;;;;;;18.50;11.90;;;;;;;1.77;100.00;98346.91;5056601;28;20209;-58
2021/12/11 07:34:04;;;;;;;21.73;14.53;;;;;;;1.76;100.00;98353.78;5056644;28;20183;-58
2021/12/11 07:36:32;;;;;;;22.40;14.17;;;;;;;1.80;100.00;98353.59;5057083;28;20179;-57
2021/12/11 07:39:02;;;;;;;19.57;12.90;;;;;;;1.80;100.00;98362.16;5057328;28;20183;-57
2021/12/11 07:41:30;;;;;;;18.10;10.80;;;;;;;1.79;100.00;98375.09;5055844;28;20571;-58
2021/12/11 07:43:57;;;;;;;20.43;13.57;;;;;;;1.78;100.00;98379.44;5056113;28;20191;-58
2021/12/11 07:46:28;;;;;;;22.13;13.90;;;;;;;1.81;100.00;98391.25;5056504;28;20477;-58
2021/12/11 07:48:57;;;;;;;18.73;12.67;;;;;;;1.80;100.00;98389.63;5072753;28;20197;-58
2021/12/11 07:51:27;;;;;;;16.93;10.77;;;;;;;1.82;100.00;98398.91;5067064;28;20214;-58
2021/12/11 07:53:55;;;;;;;17.67;11.70;;;;;;;1.84;100.00;98404.78;5071863;28;20186;-58
2021/12/11 07:56:23;;;;;;;18.30;12.20;;;;;;;1.85;100.00;98414.13;5073426;28;20215;-59
2021/12/11 07:58:54;;;;;;;20.73;13.40;;;;;;;1.83;100.00;98413.41;5076943;28;20218;-59
2021/12/11 08:01:22;;;;;;;18.93;12.80;;;;;;;1.86;100.00;98422.66;5076411;28;20279;-58
2021/12/11 08:03:49;;;;;;;17.17;11.37;;;;;;;1.91;100.00;98436.06;5076902;28;20769;-58
2021/12/11 08:06:17;;;;;;;22.30;13.57;;;;;;;1.95;100.00;98441.84;5076771;28;20210;-58
2021/12/11 08:08:46;;;;;;;26.63;14.63;;;;;;;1.98;100.00;98449.38;5076928;28;20178;-59
2021/12/11 08:11:17;;;;;;;20.17;11.57;;;;;;;1.90;100.00;98447.28;5075661;28;20206;-59
2021/12/11 08:13:46;;;;;;;20.23;12.03;;;;;;;1.91;100.00;98452.34;5077158;28;20703;-58
2021/12/11 08:16:14;;;;;;;19.97;12.57;;;;;;;1.94;100.00;98456.47;5076654;28;20208;-58
2021/12/11 08:18:41;;;;;;;21.20;12.73;;;;;;;1.98;100.00;98464.81;5073867;28;20244;-59
2021/12/11 08:21:08;;;;;;;18.87;12.17;;;;;;;2.02;100.00;98458.56;5072793;28;20206;-57
2021/12/11 08:23:42;;;;;;;19.80;12.30;;;;;;;2.08;100.00;98463.28;5073427;28;20544;-58
2021/12/11 08:26:11;;;;;;;18.30;11.97;;;;;;;2.10;99.47;98470.91;5073006;28;20205;-59
2021/12/11 08:28:38;;;;;;;24.27;15.20;;;;;;;2.10;99.45;98471.75;5064059;28;20187;-58
2021/12/11 08:31:06;;;;;;;19.43;12.97;;;;;;;2.14;99.92;98477.50;5069754;28;20279;-58
2021/12/11 08:33:33;;;;;;;17.67;11.87;;;;;;;2.17;99.80;98472.97;5073059;28;20186;-58
2021/12/11 08:36:01;;;;;;;22.33;13.63;;;;;;;2.12;99.16;98476.78;5072726;28;20270;-58
2021/12/11 08:38:29;;;;;;;19.13;12.23;;;;;;;2.16;99.06;98484.19;5062770;28;20747;-59
2021/12/11 08:40:59;;;;;;;18.73;12.70;;;;;;;2.22;99.24;98486.34;5071798;28;20214;-60
2021/12/11 08:43:29;;;;;;;15.70;10.60;;;;;;;2.24;98.95;98493.16;5073283;28;20265;-59
2021/12/11 08:46:09;;;;;;;18.53;11.33;;;;;;;2.24;98.16;98501.72;5073433;28;20614;-59
2021/12/11 08:48:37;;;;;;;18.53;11.73;;;;;;;2.29;97.47;98499.69;5071042;28;20295;-58
2021/12/11 08:51:12;;;;;;;18.23;12.00;;;;;;;2.30;96.86;98503.06;5072210;28;20276;-58
2021/12/11 08:53:39;;;;;;;19.47;12.30;;;;;;;2.34;97.12;98515.66;5073115;28;20620;-59
2021/12/11 08:56:09;;;;;;;18.27;12.07;;;;;;;2.33;97.57;98520.88;5061201;28;20192;-58
2021/12/11 08:58:38;;;;;;;19.20;11.93;;;;;;;2.38;95.44;98524.00;5052801;28;20663;-58
2021/12/11 09:01:11;;;;;;;22.40;12.57;;;;;;;2.43;96.69;98537.41;5051665;28;20301;-59
2021/12/11 09:03:42;;;;;;;18.90;12.23;;;;;;;2.44;96.74;98536.47;5053171;28;20183;-59
2021/12/11 09:06:13;;;;;;;19.33;11.77;;;;;;;2.43;96.15;98547.69;5063159;28;20216;-58
2021/12/11 09:08:44;;;;;;;20.50;12.90;;;;;;;2.50;96.67;98553.28;5072019;28;20183;-59
2021/12/11 09:11:17;;;;;;;19.97;12.27;;;;;;;2.50;95.78;98564.41;5071885;28;20195;-59
2021/12/11 09:13:49;;;;;;;22.70;14.20;;;;;;;2.56;96.63;98563.19;5072710;28;20185;-59
2021/12/11 09:16:20;;;;;;;19.87;12.40;;;;;;;2.54;95.61;98570.19;5070903;28;20267;-58
2021/12/11 09:18:53;;;;;;;21.50;13.03;;;;;;;2.63;96.08;98579.06;5071215;28;20205;-59
2021/12/11 09:21:25;;;;;;;20.57;12.17;;;;;;;2.66;96.30;98584.00;5071847;28;20567;-57
2021/12/11 09:24:02;;;;;;;20.87;13.37;;;;;;;2.65;96.38;98590.91;5070775;28;20187;-59
2021/12/11 09:26:35;;;;;;;19.07;13.07;;;;;;;2.65;96.45;98593.47;5063668;28;20278;-59
2021/12/11 09:29:07;;;;;;;20.57;12.77;;;;;;;2.55;94.48;98605.34;5068478;28;20186;-59
2021/12/11 09:31:42;;;;;;;34.57;17.03;;;;;;;2.65;94.92;98614.09;5066019;28;20238;-58
2021/12/11 09:34:14;;;;;;;18.67;12.27;;;;;;;2.68;95.05;98617.41;5072373;28;20554;-58
2021/12/11 09:36:46;;;;;;;20.00;12.57;;;;;;;2.62;95.76;98623.81;5072211;28;20202;-59
2021/12/11 09:39:17;;;;;;;19.10;12.63;;;;;;;2.65;95.28;98626.19;5071505;28;20190;-58
2021/12/11 09:41:43;;;;;;;19.60;12.47;;;;;;;2.80;96.01;98632.06;5071355;28;20208;-57
2021/12/11 09:44:16;;;;;;;17.77;11.97;;;;;;;2.87;94.91;98638.47;5072157;28;20186;-59
2021/12/11 09:46:47;;;;;;;18.67;12.27;;;;;;;2.81;94.47;98638.88;5071546;28;20203;-59
2021/12/11 09:49:20;;;;;;;19.63;14.10;;;;;;;2.85;91.79;98647.25;5071931;28;20186;-59
2021/12/11 09:51:51;;;;;;;15.53;10.70;;;;;;;2.89;92.92;98648.69;5070123;28;20297;-58
2021/12/11 09:54:22;;;;;;;24.07;16.17;;;;;;;2.92;91.79;98645.91;5055903;28;20191;-58
2021/12/11 09:56:53;;;;;;;18.77;12.20;;;;;;;3.02;89.84;98649.53;5071570;28;20648;-58
2021/12/11 09:59:25;;;;;;;17.53;12.03;;;;;;;3.10;91.18;98649.00;5070360;28;20194;-59
2021/12/11 10:01:55;;;;;;;15.63;10.67;;;;;;;3.22;88.53;98653.34;5070842;28;20284;-59
2021/12/11 10:04:30;;;;;;;17.53;11.40;;;;;;;3.20;90.36;98651.78;5071476;28;20187;-59
2021/12/11 10:10:04;;;;;;;14.97;10.30;;;;;;;3.43;89.26;98652.00;5027626;28;20198;-59
2021/12/11 10:12:35;;;;;;;15.00;10.40;;;;;;;3.45;89.25;98657.88;5062868;28;20232;-58
2021/12/11 10:15:10;;;;;;;14.80;9.60;;;;;;;3.54;89.56;98657.25;5071178;28;20199;-59
2021/12/11 10:17:43;;;;;;;14.97;9.93;;;;;;;3.47;86.95;98668.91;5071368;28;20225;-58
2021/12/11 10:20:14;;;;;;;13.70;9.47;;;;;;;3.47;88.87;98668.91;5069190;28;20222;-56
2021/12/11 10:22:44;;;;;;;15.47;10.97;;;;;;;3.56;89.88;98659.75;5070853;28;20648;-57
2021/12/11 10:25:16;;;;;;;17.00;11.07;;;;;;;3.64;91.04;98672.94;5071174;28;20202;-59
2021/12/11 10:27:44;;;;;;;16.67;9.43;;;;;;;3.66;88.34;98671.09;5070895;28;20640;-59
2021/12/11 10:30:17;;;;;;;14.80;9.93;;;;;;;3.73;88.03;98674.06;5064855;28;20242;-58
2021/12/11 10:32:44;;;;;;;14.17;10.07;;;;;;;3.75;87.38;98670.41;5067356;28;20203;-58
2021/12/11 10:35:15;;;;;;;15.00;9.40;;;;;;;3.75;87.21;98673.00;5071265;28;20195;-58
2021/12/11 10:37:44;;;;;;;13.87;10.43;;;;;;;3.61;87.38;98680.91;5070653;28;20194;-59
2021/12/11 10:40:18;;;;;;;12.47;9.50;;;;;;;3.55;87.49;98682.13;5069973;28;20627;-59
2021/12/11 10:42:50;;;;;;;14.77;10.20;;;;;;;3.64;86.30;98683.28;5070003;28;20244;-58
2021/12/11 10:45:20;;;;;;;14.17;9.70;;;;;;;3.75;86.31;98687.69;5070476;28;20195;-59
2021/12/11 10:47:52;;;;;;;13.90;9.70;;;;;;;3.82;86.64;98686.34;5070870;28;20183;-59
2021/12/11 10:50:25;;;;;;;14.53;10.20;;;;;;;3.90;86.02;98696.13;5070035;28;20591;-59
2021/12/11 10:52:52;;;;;;;15.07;10.17;;;;;;;3.80;85.95;98707.06;5070584;28;20233;-59
2021/12/11 10:55:22;;;;;;;16.90;11.00;;;;;;;3.89;84.24;98709.97;5061686;28;20223;-58
2021/12/11 10:57:54;;;;;;;16.10;10.13;;;;;;;3.85;84.90;98711.94;5050990;28;20656;-58
2021/12/11 11:00:31;;;;;;;13.97;10.27;;;;;;;3.93;83.95;98712.25;5049710;28;20203;-58
2021/12/11 11:02:59;;;;;;;14.17;9.87;;;;;;;4.25;83.38;98721.25;5051065;28;20187;-59
2021/12/11 11:05:29;;;;;;;11.90;8.73;;;;;;;4.36;82.33;98720.47;5050712;28;20211;-59
2021/12/11 11:07:56;;;;;;;13.17;9.13;;;;;;;4.23;80.57;98723.13;5051566;28;20191;-58
2021/12/11 11:10:27;;;;;;;23.00;13.73;;;;;;;4.02;84.06;98728.84;5069216;28;20225;-58
2021/12/11 11:12:56;;;;;;;17.90;13.98;;;;;;;3.93;83.61;98725.16;5070247;28;20526;-59
2021/12/11 11:15:27;;;;;;;17.30;11.80;;;;;;;3.86;85.25;98728.25;5070371;28;20267;-58
2021/12/11 11:17:55;;;;;;;22.07;14.27;;;;;;;3.80;83.82;98730.31;5070476;28;20693;-58
2021/12/11 11:20:27;;;;;;;22.30;13.33;;;;;;;3.83;85.69;98734.47;5069625;28;20626;-58
2021/12/11 11:22:56;;;;;;;20.37;11.83;;;;;;;3.83;85.29;98729.28;5070429;28;20229;-59
2021/12/11 11:25:26;;;;;;;18.43;11.63;;;;;;;3.96;85.83;98732.69;5070722;28;20265;-58
2021/12/11 11:27:57;;;;;;;18.90;12.40;;;;;;;4.05;83.82;98736.38;5071159;28;20560;-59
2021/12/11 11:30:31;;;;;;;13.87;10.03;;;;;;;4.36;81.47;98744.56;5068155;28;20721;-59
2021/12/11 11:33:00;;;;;;;14.03;10.27;;;;;;;4.25;82.46;98741.91;5062740;28;20194;-58
2021/12/11 11:35:31;;;;;;;13.33;9.73;;;;;;;4.04;81.87;98746.84;5069181;28;20240;-58
2021/12/11 11:38:01;;;;;;;16.47;11.20;;;;;;;4.05;82.16;98753.66;5070165;28;20214;-59
2021/12/11 11:40:33;;;;;;;14.63;9.67;;;;;;;3.84;83.17;98751.59;5069849;28;20270;-58
2021/12/11 11:43:00;;;;;;;15.17;10.60;;;;;;;3.92;84.67;98756.22;5056783;28;20187;-58
2021/12/11 11:45:30;;;;;;;15.70;10.67;;;;;;;3.79;83.73;98761.41;5069796;28;20183;-56
2021/12/11 11:47:57;;;;;;;17.77;10.10;;;;;;;3.43;83.57;98762.94;5070556;28;20262;-59